LOG708 EKCH-EGLL
Flight info
| Callsign | LOG708 |
|---|---|
| Flight time | 1h 25m |
| Altitude | FL340 |
| Route | LANG2C LANGO ABNED L980 LOGAN LOGA2H |
| Aircraft | B752/M-SDE3FHIM3RW/LB1 |
Departure
| Time | 2026-04-22 16:58 |
|---|---|
| Airport | Copenhagen Kastrup Airport (EKCH) |
Arrival
| Time | 2026-04-22 18:24 |
|---|---|
| Airport | London Heathrow Airport (EGLL) |
| Time | Latitude | Longitude | Altitude | Speed | Heading |
|---|---|---|---|---|---|
| 2026-04-22 16:47 | 55.62573 | 12.65047 | 26 ft | 0 kts | 269° |
| 2026-04-22 16:50 | 55.62573 | 12.65063 | 26 ft | 2 kts | 269° |
| 2026-04-22 16:50 | 55.62573 | 12.65095 | 26 ft | 3 kts | 269° |
| 2026-04-22 16:51 | 55.62575 | 12.65130 | 26 ft | 3 kts | 248° |
| 2026-04-22 16:51 | 55.62585 | 12.65156 | 26 ft | 0 kts | 222° |
| 2026-04-22 16:52 | 55.62584 | 12.65156 | 26 ft | 0 kts | 173° |
| 2026-04-22 16:52 | 55.62558 | 12.65166 | 26 ft | 9 kts | 168° |
| 2026-04-22 16:52 | 55.62449 | 12.65189 | 26 ft | 21 kts | 176° |
| 2026-04-22 16:52 | 55.62266 | 12.65198 | 26 ft | 25 kts | 187° |
| 2026-04-22 16:53 | 55.62101 | 12.65063 | 26 ft | 27 kts | 215° |
| 2026-04-22 16:53 | 55.61954 | 12.64885 | 26 ft | 25 kts | 216° |
| 2026-04-22 16:53 | 55.61820 | 12.64720 | 26 ft | 22 kts | 205° |
| 2026-04-22 16:53 | 55.61691 | 12.64609 | 26 ft | 20 kts | 205° |
| 2026-04-22 16:54 | 55.61571 | 12.64492 | 26 ft | 26 kts | 209° |
| 2026-04-22 16:54 | 55.61392 | 12.64260 | 26 ft | 29 kts | 219° |
| 2026-04-22 16:54 | 55.61256 | 12.64091 | 26 ft | 19 kts | 215° |
| 2026-04-22 16:54 | 55.61132 | 12.63945 | 26 ft | 25 kts | 213° |
| 2026-04-22 16:55 | 55.60967 | 12.63751 | 26 ft | 32 kts | 214° |
| 2026-04-22 16:55 | 55.60796 | 12.63551 | 26 ft | 28 kts | 212° |
| 2026-04-22 16:55 | 55.60644 | 12.63375 | 26 ft | 23 kts | 219° |
| 2026-04-22 16:55 | 55.60546 | 12.63228 | 26 ft | 14 kts | 220° |
| 2026-04-22 16:56 | 55.60474 | 12.63262 | 26 ft | 12 kts | 134° |
| 2026-04-22 16:56 | 55.60462 | 12.63283 | 26 ft | 0 kts | 133° |
| 2026-04-22 16:57 | 55.60455 | 12.63298 | 26 ft | 11 kts | 133° |
| 2026-04-22 16:57 | 55.60431 | 12.63473 | 26 ft | 13 kts | 54° |
| 2026-04-22 16:57 | 55.60476 | 12.63548 | 26 ft | 4 kts | 41° |
| 2026-04-22 16:57 | 55.60487 | 12.63566 | 26 ft | 11 kts | 41° |
| 2026-04-22 16:58 | 55.60612 | 12.63764 | 26 ft | 66 kts | 42° |
| 2026-04-22 16:58 | 55.61483 | 12.65109 | 39 ft | 174 kts | 40° |
| 2026-04-22 16:58 | 55.62422 | 12.66595 | 699 ft | 191 kts | 40° |
| 2026-04-22 16:58 | 55.63461 | 12.68403 | 1442 ft | 232 kts | 42° |
| 2026-04-22 16:59 | 55.64337 | 12.71069 | 2138 ft | 263 kts | 63° |
| 2026-04-22 16:59 | 55.64529 | 12.74236 | 2850 ft | 266 kts | 88° |
| 2026-04-22 16:59 | 55.63971 | 12.77473 | 3602 ft | 287 kts | 111° |
| 2026-04-22 16:59 | 55.62725 | 12.80244 | 4333 ft | 291 kts | 134° |
| 2026-04-22 17:00 | 55.60974 | 12.82024 | 5063 ft | 295 kts | 157° |
| 2026-04-22 17:00 | 55.56980 | 12.81740 | 6516 ft | 293 kts | 202° |
| 2026-04-22 17:00 | 55.55325 | 12.79712 | 7240 ft | 291 kts | 225° |
| 2026-04-22 17:01 | 55.54228 | 12.76767 | 7976 ft | 287 kts | 247° |
| 2026-04-22 17:01 | 55.53669 | 12.73419 | 8740 ft | 285 kts | 260° |
| 2026-04-22 17:01 | 55.53340 | 12.69995 | 9467 ft | 281 kts | 265° |
| 2026-04-22 17:01 | 55.53098 | 12.66594 | 10188 ft | 280 kts | 267° |
| 2026-04-22 17:02 | 55.52648 | 12.63225 | 10901 ft | 286 kts | 257° |
| 2026-04-22 17:02 | 55.51901 | 12.59857 | 11293 ft | 303 kts | 251° |
| 2026-04-22 17:02 | 55.51026 | 12.56357 | 11608 ft | 325 kts | 249° |
| 2026-04-22 17:02 | 55.50060 | 12.52590 | 11927 ft | 349 kts | 249° |
| 2026-04-22 17:03 | 55.49044 | 12.48644 | 12540 ft | 359 kts | 248° |
| 2026-04-22 17:03 | 55.48004 | 12.44604 | 13169 ft | 365 kts | 248° |
| 2026-04-22 17:03 | 55.46953 | 12.40502 | 13796 ft | 372 kts | 248° |
| 2026-04-22 17:03 | 55.45887 | 12.36319 | 14423 ft | 377 kts | 248° |
| 2026-04-22 17:04 | 55.44813 | 12.32083 | 15050 ft | 381 kts | 248° |
| 2026-04-22 17:04 | 55.43734 | 12.27803 | 15676 ft | 385 kts | 248° |
| 2026-04-22 17:04 | 55.42651 | 12.23483 | 16301 ft | 389 kts | 248° |
| 2026-04-22 17:04 | 55.41561 | 12.19116 | 16887 ft | 393 kts | 248° |
| 2026-04-22 17:05 | 55.40463 | 12.14686 | 17440 ft | 398 kts | 248° |
| 2026-04-22 17:05 | 55.39358 | 12.10205 | 17992 ft | 402 kts | 248° |
| 2026-04-22 17:05 | 55.38249 | 12.05690 | 18542 ft | 405 kts | 248° |
| 2026-04-22 17:05 | 55.37139 | 12.01141 | 19091 ft | 407 kts | 248° |
| 2026-04-22 17:06 | 55.35921 | 11.96625 | 19639 ft | 411 kts | 244° |
| 2026-04-22 17:06 | 55.34528 | 11.92233 | 20172 ft | 416 kts | 240° |
| 2026-04-22 17:06 | 55.32997 | 11.87857 | 20551 ft | 426 kts | 238° |
| 2026-04-22 17:06 | 55.31367 | 11.83465 | 20866 ft | 434 kts | 236° |
| 2026-04-22 17:07 | 55.29675 | 11.79059 | 21169 ft | 439 kts | 235° |
| 2026-04-22 17:07 | 55.27951 | 11.74640 | 21470 ft | 440 kts | 235° |
| 2026-04-22 17:07 | 55.26237 | 11.70212 | 21770 ft | 440 kts | 235° |
| 2026-04-22 17:07 | 55.24547 | 11.65756 | 22069 ft | 440 kts | 236° |
| 2026-04-22 17:08 | 55.22867 | 11.61272 | 22369 ft | 442 kts | 236° |
| 2026-04-22 17:08 | 55.21190 | 11.56760 | 22669 ft | 444 kts | 236° |
| 2026-04-22 17:08 | 55.19511 | 11.52224 | 22969 ft | 447 kts | 236° |
| 2026-04-22 17:08 | 55.17823 | 11.47658 | 23269 ft | 449 kts | 236° |
| 2026-04-22 17:09 | 55.16125 | 11.43067 | 23569 ft | 451 kts | 236° |
| 2026-04-22 17:09 | 55.14414 | 11.38446 | 23871 ft | 454 kts | 236° |
| 2026-04-22 17:09 | 55.12696 | 11.33816 | 24171 ft | 456 kts | 236° |
| 2026-04-22 17:09 | 55.10969 | 11.29171 | 24471 ft | 458 kts | 236° |
| 2026-04-22 17:10 | 55.09232 | 11.24512 | 24771 ft | 460 kts | 236° |
| 2026-04-22 17:10 | 55.07480 | 11.19826 | 25071 ft | 463 kts | 235° |
| 2026-04-22 17:10 | 55.05714 | 11.15115 | 25372 ft | 466 kts | 235° |
| 2026-04-22 17:10 | 55.03940 | 11.10393 | 25672 ft | 468 kts | 235° |
| 2026-04-22 17:11 | 55.02151 | 11.05643 | 25972 ft | 471 kts | 235° |
| 2026-04-22 17:11 | 55.00348 | 11.00868 | 26272 ft | 474 kts | 235° |
| 2026-04-22 17:11 | 54.98534 | 10.96074 | 26573 ft | 477 kts | 235° |
| 2026-04-22 17:11 | 54.96707 | 10.91253 | 26873 ft | 479 kts | 235° |
| 2026-04-22 17:12 | 54.94905 | 10.86370 | 27173 ft | 482 kts | 236° |
| 2026-04-22 17:12 | 54.93128 | 10.81429 | 27473 ft | 485 kts | 236° |
| 2026-04-22 17:12 | 54.91363 | 10.76436 | 27773 ft | 487 kts | 237° |
| 2026-04-22 17:12 | 54.89600 | 10.71399 | 28074 ft | 489 kts | 237° |
| 2026-04-22 17:13 | 54.87841 | 10.66347 | 28374 ft | 492 kts | 237° |
| 2026-04-22 17:13 | 54.86072 | 10.61256 | 28675 ft | 494 kts | 237° |
| 2026-04-22 17:13 | 54.84364 | 10.56332 | 28964 ft | 495 kts | 237° |
| 2026-04-22 17:13 | 54.82526 | 10.51042 | 29274 ft | 497 kts | 237° |
| 2026-04-22 17:14 | 54.80744 | 10.45916 | 29574 ft | 498 kts | 237° |
| 2026-04-22 17:14 | 54.78957 | 10.40788 | 29874 ft | 498 kts | 237° |
| 2026-04-22 17:14 | 54.77166 | 10.35660 | 30174 ft | 499 kts | 237° |
| 2026-04-22 17:14 | 54.75371 | 10.30533 | 30473 ft | 499 kts | 237° |
| 2026-04-22 17:15 | 54.74174 | 10.27118 | 30672 ft | 499 kts | 237° |
| 2026-04-22 17:15 | 54.71773 | 10.20288 | 31072 ft | 499 kts | 236° |
| 2026-04-22 17:15 | 54.69971 | 10.15177 | 31371 ft | 499 kts | 236° |
| 2026-04-22 17:15 | 54.68168 | 10.10076 | 31670 ft | 498 kts | 236° |
| 2026-04-22 17:16 | 54.66364 | 10.04981 | 31969 ft | 498 kts | 236° |
| 2026-04-22 17:16 | 54.64562 | 9.99908 | 32267 ft | 497 kts | 236° |
| 2026-04-22 17:16 | 54.62756 | 9.94835 | 32567 ft | 496 kts | 236° |
| 2026-04-22 17:16 | 54.60957 | 9.89791 | 32865 ft | 495 kts | 236° |
| 2026-04-22 17:17 | 54.59158 | 9.84757 | 33164 ft | 494 kts | 235° |
| 2026-04-22 17:17 | 54.57359 | 9.79737 | 33463 ft | 492 kts | 235° |
| 2026-04-22 17:17 | 54.55564 | 9.74737 | 33761 ft | 491 kts | 235° |
| 2026-04-22 17:17 | 54.53771 | 9.69757 | 34059 ft | 489 kts | 235° |
| 2026-04-22 17:18 | 54.51979 | 9.64789 | 34251 ft | 491 kts | 235° |
| 2026-04-22 17:18 | 54.50167 | 9.59785 | 34347 ft | 494 kts | 235° |
| 2026-04-22 17:18 | 54.46499 | 9.49693 | 34382 ft | 504 kts | 235° |
| 2026-04-22 17:19 | 54.38974 | 9.29110 | 34382 ft | 514 kts | 235° |
| 2026-04-22 17:20 | 54.31339 | 9.08375 | 34388 ft | 516 kts | 235° |
| 2026-04-22 17:21 | 54.25583 | 8.92853 | 34400 ft | 516 kts | 235° |
| 2026-04-22 17:22 | 54.19810 | 8.77380 | 34410 ft | 515 kts | 236° |
| 2026-04-22 17:23 | 54.14035 | 8.62001 | 34422 ft | 513 kts | 236° |
| 2026-04-22 17:23 | 54.08252 | 8.46698 | 34429 ft | 512 kts | 236° |
| 2026-04-22 17:24 | 54.04403 | 8.36562 | 34432 ft | 511 kts | 236° |
| 2026-04-22 17:24 | 54.00549 | 8.26455 | 34438 ft | 509 kts | 236° |
| 2026-04-22 17:25 | 53.96699 | 8.16400 | 34441 ft | 509 kts | 236° |
| 2026-04-22 17:25 | 53.92841 | 8.06359 | 34441 ft | 508 kts | 236° |
| 2026-04-22 17:26 | 53.88977 | 7.96344 | 34441 ft | 508 kts | 236° |
| 2026-04-22 17:26 | 53.85111 | 7.86365 | 34441 ft | 508 kts | 236° |
| 2026-04-22 17:27 | 53.81230 | 7.76387 | 34441 ft | 508 kts | 236° |
| 2026-04-22 17:27 | 53.77346 | 7.66444 | 34441 ft | 507 kts | 236° |
| 2026-04-22 17:28 | 53.73457 | 7.56526 | 34441 ft | 507 kts | 236° |
| 2026-04-22 17:28 | 53.69565 | 7.46642 | 34440 ft | 507 kts | 236° |
| 2026-04-22 17:29 | 53.65667 | 7.36781 | 34440 ft | 506 kts | 236° |
| 2026-04-22 17:29 | 53.61767 | 7.26955 | 34441 ft | 505 kts | 236° |
| 2026-04-22 17:30 | 53.57866 | 7.17164 | 34441 ft | 504 kts | 236° |
| 2026-04-22 17:30 | 53.53959 | 7.07395 | 34441 ft | 504 kts | 236° |
| 2026-04-22 17:31 | 53.50053 | 6.97666 | 34441 ft | 503 kts | 236° |
| 2026-04-22 17:31 | 53.46143 | 6.87965 | 34442 ft | 502 kts | 236° |
| 2026-04-22 17:32 | 53.42231 | 6.78296 | 34443 ft | 502 kts | 236° |
| 2026-04-22 17:32 | 53.38314 | 6.68651 | 34444 ft | 502 kts | 236° |
| 2026-04-22 17:33 | 53.34391 | 6.59026 | 34445 ft | 501 kts | 236° |
| 2026-04-22 17:33 | 53.30530 | 6.49592 | 34447 ft | 501 kts | 236° |
| 2026-04-22 17:34 | 53.26602 | 6.40029 | 34448 ft | 500 kts | 236° |
| 2026-04-22 17:34 | 53.22662 | 6.30474 | 34450 ft | 500 kts | 236° |
| 2026-04-22 17:35 | 53.18719 | 6.20947 | 34447 ft | 500 kts | 236° |
| 2026-04-22 17:35 | 53.14767 | 6.11435 | 34448 ft | 500 kts | 236° |
| 2026-04-22 17:36 | 53.10810 | 6.01947 | 34456 ft | 500 kts | 236° |
| 2026-04-22 17:36 | 53.06852 | 5.92495 | 34460 ft | 498 kts | 236° |
| 2026-04-22 17:37 | 53.02895 | 5.83080 | 34463 ft | 497 kts | 236° |
| 2026-04-22 17:37 | 52.98939 | 5.73701 | 34460 ft | 497 kts | 236° |
| 2026-04-22 17:38 | 52.94980 | 5.64346 | 34456 ft | 496 kts | 236° |
| 2026-04-22 17:38 | 52.91015 | 5.55015 | 34451 ft | 496 kts | 236° |
| 2026-04-22 17:39 | 52.87051 | 5.45717 | 34447 ft | 495 kts | 236° |
| 2026-04-22 17:40 | 52.81094 | 5.31809 | 34438 ft | 495 kts | 236° |
| 2026-04-22 17:40 | 52.77112 | 5.22554 | 34432 ft | 494 kts | 236° |
| 2026-04-22 17:41 | 52.73132 | 5.13337 | 34430 ft | 494 kts | 236° |
| 2026-04-22 17:41 | 52.69145 | 5.04139 | 34429 ft | 494 kts | 236° |
| 2026-04-22 17:42 | 52.65157 | 4.94972 | 34428 ft | 493 kts | 236° |
| 2026-04-22 17:42 | 52.61164 | 4.85826 | 34427 ft | 493 kts | 236° |
| 2026-04-22 17:43 | 52.57166 | 4.76703 | 34424 ft | 492 kts | 236° |
| 2026-04-22 17:43 | 52.53168 | 4.67612 | 34418 ft | 492 kts | 236° |
| 2026-04-22 17:44 | 52.49227 | 4.58681 | 34415 ft | 491 kts | 236° |
| 2026-04-22 17:44 | 52.45221 | 4.49634 | 34413 ft | 491 kts | 236° |
| 2026-04-22 17:45 | 52.41217 | 4.40625 | 34414 ft | 490 kts | 236° |
| 2026-04-22 17:45 | 52.37208 | 4.31635 | 34412 ft | 490 kts | 236° |
| 2026-04-22 17:46 | 52.33197 | 4.22674 | 34399 ft | 489 kts | 236° |
| 2026-04-22 17:46 | 52.29178 | 4.13724 | 34396 ft | 489 kts | 236° |
| 2026-04-22 17:47 | 52.25159 | 4.04803 | 34394 ft | 489 kts | 236° |
| 2026-04-22 17:47 | 52.21133 | 3.95900 | 34393 ft | 488 kts | 236° |
| 2026-04-22 17:48 | 52.17104 | 3.87020 | 34392 ft | 488 kts | 236° |
| 2026-04-22 17:48 | 52.13073 | 3.78166 | 34390 ft | 488 kts | 236° |
| 2026-04-22 17:49 | 52.09031 | 3.69318 | 34388 ft | 488 kts | 236° |
| 2026-04-22 17:49 | 52.04986 | 3.60494 | 34389 ft | 488 kts | 236° |
| 2026-04-22 17:50 | 52.00931 | 3.51683 | 34392 ft | 488 kts | 236° |
| 2026-04-22 17:50 | 51.96876 | 3.42904 | 34398 ft | 487 kts | 236° |
| 2026-04-22 17:51 | 51.92820 | 3.34156 | 34404 ft | 486 kts | 236° |
| 2026-04-22 17:51 | 51.88763 | 3.25430 | 34406 ft | 485 kts | 236° |
| 2026-04-22 17:52 | 51.85194 | 3.16309 | 34404 ft | 477 kts | 250° |
| 2026-04-22 17:52 | 51.83442 | 3.06118 | 34409 ft | 469 kts | 263° |
| 2026-04-22 17:53 | 51.82701 | 2.95726 | 34405 ft | 465 kts | 269° |
| 2026-04-22 17:53 | 51.82338 | 2.85316 | 34400 ft | 464 kts | 271° |
| 2026-04-22 17:54 | 51.82015 | 2.74925 | 34397 ft | 464 kts | 270° |
| 2026-04-22 17:54 | 51.81518 | 2.64554 | 34394 ft | 464 kts | 268° |
| 2026-04-22 17:55 | 51.80844 | 2.54191 | 34391 ft | 465 kts | 267° |
| 2026-04-22 17:55 | 51.80473 | 2.49021 | 34290 ft | 466 kts | 266° |
| 2026-04-22 17:55 | 51.80087 | 2.43792 | 33831 ft | 472 kts | 266° |
| 2026-04-22 17:55 | 51.79694 | 2.38563 | 33298 ft | 465 kts | 266° |
| 2026-04-22 17:56 | 51.79302 | 2.33465 | 32749 ft | 452 kts | 266° |
| 2026-04-22 17:56 | 51.78920 | 2.28478 | 32199 ft | 446 kts | 266° |
| 2026-04-22 17:56 | 51.78568 | 2.23547 | 31649 ft | 440 kts | 266° |
| 2026-04-22 17:56 | 51.78248 | 2.18676 | 31099 ft | 435 kts | 266° |
| 2026-04-22 17:57 | 51.77947 | 2.13853 | 30550 ft | 431 kts | 266° |
| 2026-04-22 17:57 | 51.77658 | 2.09061 | 29999 ft | 427 kts | 266° |
| 2026-04-22 17:57 | 51.77378 | 2.04314 | 29449 ft | 424 kts | 266° |
| 2026-04-22 17:57 | 51.77102 | 1.99607 | 28900 ft | 421 kts | 266° |
| 2026-04-22 17:58 | 51.76828 | 1.94930 | 28350 ft | 418 kts | 266° |
| 2026-04-22 17:58 | 51.76554 | 1.90281 | 27800 ft | 416 kts | 266° |
| 2026-04-22 17:58 | 51.76279 | 1.85662 | 27250 ft | 413 kts | 265° |
| 2026-04-22 17:58 | 51.76002 | 1.81061 | 26700 ft | 411 kts | 265° |
| 2026-04-22 17:59 | 51.75724 | 1.76495 | 26150 ft | 409 kts | 265° |
| 2026-04-22 17:59 | 51.75444 | 1.71957 | 25605 ft | 407 kts | 265° |
| 2026-04-22 17:59 | 51.75164 | 1.67477 | 25459 ft | 399 kts | 265° |
| 2026-04-22 17:59 | 51.74883 | 1.63031 | 25239 ft | 403 kts | 265° |
| 2026-04-22 18:00 | 51.74693 | 1.60011 | 24820 ft | 407 kts | 265° |
| 2026-04-22 18:00 | 51.74313 | 1.54021 | 24068 ft | 400 kts | 264° |
| 2026-04-22 18:00 | 51.74029 | 1.49577 | 23516 ft | 398 kts | 264° |
| 2026-04-22 18:00 | 51.73745 | 1.45167 | 22967 ft | 396 kts | 264° |
| 2026-04-22 18:01 | 51.73460 | 1.40772 | 22416 ft | 393 kts | 264° |
| 2026-04-22 18:01 | 51.73176 | 1.36414 | 21867 ft | 390 kts | 264° |
| 2026-04-22 18:01 | 51.72892 | 1.32088 | 21317 ft | 387 kts | 264° |
| 2026-04-22 18:01 | 51.72609 | 1.27794 | 20768 ft | 384 kts | 264° |
| 2026-04-22 18:02 | 51.72326 | 1.23532 | 20218 ft | 382 kts | 264° |
| 2026-04-22 18:02 | 51.72044 | 1.19302 | 19669 ft | 379 kts | 264° |
| 2026-04-22 18:02 | 51.71763 | 1.15105 | 19120 ft | 376 kts | 264° |
| 2026-04-22 18:02 | 51.71482 | 1.10935 | 18570 ft | 374 kts | 263° |
| 2026-04-22 18:03 | 51.71202 | 1.06795 | 18021 ft | 371 kts | 263° |
| 2026-04-22 18:03 | 51.70921 | 1.02679 | 17471 ft | 368 kts | 263° |
| 2026-04-22 18:03 | 51.70641 | 0.98597 | 16921 ft | 366 kts | 263° |
| 2026-04-22 18:03 | 51.70363 | 0.94553 | 16525 ft | 360 kts | 263° |
| 2026-04-22 18:04 | 51.70119 | 0.91020 | 16352 ft | 357 kts | 263° |
| 2026-04-22 18:04 | 51.69839 | 0.87004 | 15766 ft | 361 kts | 262° |
| 2026-04-22 18:04 | 51.69559 | 0.83006 | 15216 ft | 358 kts | 262° |
| 2026-04-22 18:04 | 51.69280 | 0.79037 | 14666 ft | 356 kts | 262° |
| 2026-04-22 18:05 | 51.69002 | 0.75098 | 14117 ft | 353 kts | 262° |
| 2026-04-22 18:05 | 51.68725 | 0.71188 | 13568 ft | 351 kts | 262° |
| 2026-04-22 18:05 | 51.68449 | 0.67302 | 13018 ft | 349 kts | 262° |
| 2026-04-22 18:05 | 51.68173 | 0.63439 | 12468 ft | 346 kts | 262° |
| 2026-04-22 18:06 | 51.67898 | 0.59609 | 11919 ft | 344 kts | 261° |
| 2026-04-22 18:06 | 51.67622 | 0.55797 | 11369 ft | 342 kts | 261° |
| 2026-04-22 18:06 | 51.67347 | 0.52016 | 10823 ft | 340 kts | 261° |
| 2026-04-22 18:06 | 51.67073 | 0.48247 | 10272 ft | 338 kts | 261° |
| 2026-04-22 18:07 | 51.66798 | 0.44496 | 9721 ft | 337 kts | 261° |
| 2026-04-22 18:07 | 51.66527 | 0.40798 | 9486 ft | 329 kts | 261° |
| 2026-04-22 18:07 | 51.66258 | 0.37153 | 9430 ft | 329 kts | 261° |
| 2026-04-22 18:07 | 51.65987 | 0.33499 | 9416 ft | 330 kts | 261° |
| 2026-04-22 18:08 | 51.65713 | 0.29837 | 9411 ft | 331 kts | 261° |
| 2026-04-22 18:08 | 51.65437 | 0.26166 | 9411 ft | 331 kts | 261° |
| 2026-04-22 18:08 | 51.65159 | 0.22489 | 9412 ft | 331 kts | 261° |
| 2026-04-22 18:08 | 51.64825 | 0.18832 | 9411 ft | 331 kts | 259° |
| 2026-04-22 18:09 | 51.64466 | 0.15171 | 9410 ft | 331 kts | 258° |
| 2026-04-22 18:09 | 51.64101 | 0.11518 | 9408 ft | 331 kts | 258° |
| 2026-04-22 18:09 | 51.63733 | 0.07864 | 9405 ft | 331 kts | 258° |
| 2026-04-22 18:09 | 51.63367 | 0.04237 | 9407 ft | 326 kts | 258° |
| 2026-04-22 18:10 | 51.63006 | 0.00677 | 9405 ft | 321 kts | 258° |
| 2026-04-22 18:10 | 51.62644 | -0.02850 | 9405 ft | 319 kts | 258° |
| 2026-04-22 18:10 | 51.62288 | -0.06346 | 9400 ft | 316 kts | 258° |
| 2026-04-22 18:10 | 51.61939 | -0.09806 | 9401 ft | 314 kts | 258° |
| 2026-04-22 18:11 | 51.61596 | -0.13229 | 9397 ft | 307 kts | 258° |
| 2026-04-22 18:11 | 51.61264 | -0.16572 | 9394 ft | 300 kts | 258° |
| 2026-04-22 18:11 | 51.60940 | -0.19858 | 9392 ft | 296 kts | 258° |
| 2026-04-22 18:11 | 51.60627 | -0.23100 | 9388 ft | 294 kts | 259° |
| 2026-04-22 18:12 | 51.60464 | -0.26424 | 8929 ft | 301 kts | 264° |
| 2026-04-22 18:12 | 51.60434 | -0.29725 | 8511 ft | 287 kts | 267° |
| 2026-04-22 18:12 | 51.60445 | -0.31806 | 8443 ft | 274 kts | 268° |
| 2026-04-22 18:12 | 51.60486 | -0.35795 | 8389 ft | 265 kts | 268° |
| 2026-04-22 18:13 | 51.60523 | -0.38741 | 8389 ft | 263 kts | 268° |
| 2026-04-22 18:13 | 51.60561 | -0.41670 | 8384 ft | 262 kts | 268° |
| 2026-04-22 18:13 | 51.60598 | -0.44592 | 8374 ft | 261 kts | 268° |
| 2026-04-22 18:13 | 51.60633 | -0.47531 | 8114 ft | 269 kts | 268° |
| 2026-04-22 18:14 | 51.60666 | -0.50532 | 7614 ft | 268 kts | 268° |
| 2026-04-22 18:14 | 51.60674 | -0.53459 | 7436 ft | 256 kts | 266° |
| 2026-04-22 18:14 | 51.60504 | -0.56273 | 7394 ft | 252 kts | 260° |
| 2026-04-22 18:14 | 51.60261 | -0.59057 | 7383 ft | 251 kts | 258° |
| 2026-04-22 18:15 | 51.60012 | -0.61816 | 7138 ft | 258 kts | 258° |
| 2026-04-22 18:15 | 51.59749 | -0.64692 | 6623 ft | 256 kts | 258° |
| 2026-04-22 18:15 | 51.59493 | -0.67497 | 6099 ft | 251 kts | 258° |
| 2026-04-22 18:15 | 51.59246 | -0.70226 | 5594 ft | 242 kts | 258° |
| 2026-04-22 18:16 | 51.59008 | -0.72861 | 5076 ft | 236 kts | 258° |
| 2026-04-22 18:16 | 51.58767 | -0.75472 | 4556 ft | 237 kts | 258° |
| 2026-04-22 18:16 | 51.58447 | -0.78007 | 4357 ft | 228 kts | 250° |
| 2026-04-22 18:16 | 51.57554 | -0.79995 | 4339 ft | 217 kts | 221° |
| 2026-04-22 18:17 | 51.56224 | -0.80986 | 4387 ft | 211 kts | 193° |
| 2026-04-22 18:17 | 51.54762 | -0.81265 | 4209 ft | 212 kts | 180° |
| 2026-04-22 18:17 | 51.53336 | -0.81441 | 3751 ft | 201 kts | 177° |
| 2026-04-22 18:17 | 51.51984 | -0.81649 | 3444 ft | 188 kts | 177° |
| 2026-04-22 18:18 | 51.50707 | -0.81847 | 3364 ft | 181 kts | 175° |
| 2026-04-22 18:18 | 51.49580 | -0.81240 | 3315 ft | 169 kts | 146° |
| 2026-04-22 18:18 | 51.48834 | -0.79741 | 3439 ft | 181 kts | 124° |
| 2026-04-22 18:18 | 51.48200 | -0.78026 | 3368 ft | 173 kts | 118° |
| 2026-04-22 18:19 | 51.47740 | -0.76318 | 3346 ft | 162 kts | 110° |
| 2026-04-22 18:19 | 51.47542 | -0.74579 | 3192 ft | 156 kts | 99° |
| 2026-04-22 18:19 | 51.47530 | -0.72922 | 3014 ft | 143 kts | 92° |
| 2026-04-22 18:19 | 51.47570 | -0.71359 | 2884 ft | 142 kts | 90° |
| 2026-04-22 18:20 | 51.47601 | -0.69783 | 2685 ft | 140 kts | 90° |
| 2026-04-22 18:20 | 51.47629 | -0.68234 | 2484 ft | 139 kts | 90° |
| 2026-04-22 18:20 | 51.47656 | -0.66691 | 2295 ft | 138 kts | 90° |
| 2026-04-22 18:20 | 51.47675 | -0.65152 | 2117 ft | 139 kts | 90° |
| 2026-04-22 18:21 | 51.47687 | -0.63605 | 1931 ft | 139 kts | 90° |
| 2026-04-22 18:21 | 51.47696 | -0.62057 | 1753 ft | 140 kts | 90° |
| 2026-04-22 18:21 | 51.47703 | -0.60492 | 1562 ft | 140 kts | 90° |
| 2026-04-22 18:21 | 51.47704 | -0.58910 | 1354 ft | 144 kts | 90° |
| 2026-04-22 18:22 | 51.47700 | -0.57347 | 1199 ft | 137 kts | 89° |
| 2026-04-22 18:22 | 51.47712 | -0.55828 | 1002 ft | 135 kts | 89° |
| 2026-04-22 18:22 | 51.47725 | -0.54341 | 825 ft | 133 kts | 89° |
| 2026-04-22 18:22 | 51.47729 | -0.52864 | 648 ft | 132 kts | 89° |
| 2026-04-22 18:23 | 51.47739 | -0.51406 | 475 ft | 131 kts | 89° |
| 2026-04-22 18:23 | 51.47746 | -0.49963 | 305 ft | 130 kts | 89° |
| 2026-04-22 18:23 | 51.47750 | -0.48521 | 138 ft | 127 kts | 89° |
| 2026-04-22 18:24 | 51.47758 | -0.46622 | 92 ft | 59 kts | 90° |
| 2026-04-22 18:24 | 51.47743 | -0.46234 | 92 ft | 18 kts | 109° |
| 2026-04-22 18:24 | 51.47646 | -0.46082 | 92 ft | 1 kts | 148° |
| 2026-04-22 18:25 | 51.47645 | -0.46081 | 92 ft | 0 kts | 148° |
| 2026-04-22 18:25 | 51.47631 | -0.46069 | 92 ft | 13 kts | 155° |
| 2026-04-22 18:26 | 51.47526 | -0.45877 | 92 ft | 18 kts | 88° |
| 2026-04-22 18:26 | 51.47526 | -0.45589 | 92 ft | 31 kts | 90° |
| 2026-04-22 18:26 | 51.47526 | -0.45223 | 92 ft | 29 kts | 90° |
| 2026-04-22 18:26 | 51.47526 | -0.44959 | 92 ft | 19 kts | 90° |
| 2026-04-22 18:27 | 51.47526 | -0.44764 | 92 ft | 18 kts | 90° |
| 2026-04-22 18:27 | 51.47486 | -0.44587 | 92 ft | 16 kts | 149° |
| 2026-04-22 18:27 | 51.47350 | -0.44559 | 92 ft | 24 kts | 179° |
| 2026-04-22 18:27 | 51.47174 | -0.44555 | 92 ft | 27 kts | 179° |
| 2026-04-22 18:28 | 51.46993 | -0.44555 | 92 ft | 25 kts | 180° |
| 2026-04-22 18:28 | 51.46838 | -0.44554 | 92 ft | 19 kts | 179° |
| 2026-04-22 18:28 | 51.46758 | -0.44623 | 92 ft | 13 kts | 249° |
| 2026-04-22 18:28 | 51.46750 | -0.44774 | 92 ft | 12 kts | 268° |
| 2026-04-22 18:29 | 51.46756 | -0.44853 | 92 ft | 4 kts | 307° |
| 2026-04-22 18:29 | 51.46803 | -0.44881 | 92 ft | 6 kts | 354° |
| 2026-04-22 18:29 | 51.46840 | -0.44884 | 92 ft | 5 kts | 358° |
| 2026-04-22 18:29 | 51.46844 | -0.44884 | 92 ft | 0 kts | 359° |